createdAt,value
2024-01-15T00:01:22.628Z,17.65
2024-01-15T00:05:25.680Z,17.73
2024-01-15T00:09:31.881Z,16.15
2024-01-15T00:13:34.879Z,16.27
2024-01-15T00:17:37.667Z,17.38
2024-01-15T00:21:40.544Z,17.20
2024-01-15T00:25:44.782Z,17.80
2024-01-15T00:29:47.540Z,16.77
2024-01-15T00:33:50.482Z,17.08
2024-01-15T00:37:53.519Z,17.77
2024-01-15T00:41:57.612Z,18.17
2024-01-15T00:46:00.442Z,16.40
2024-01-15T00:50:03.303Z,16.92
2024-01-15T00:54:06.354Z,15.43
2024-01-15T00:58:10.454Z,15.70
2024-01-15T01:02:13.388Z,16.67
2024-01-15T01:06:16.234Z,16.70
2024-01-15T01:10:22.814Z,16.75
2024-01-15T01:14:27.013Z,17.35
2024-01-15T01:18:29.906Z,16.85
2024-01-15T01:22:32.768Z,17.05
2024-01-15T01:26:35.555Z,17.65
2024-01-15T01:30:40.740Z,16.83
2024-01-15T01:34:44.333Z,17.90
2024-01-15T01:38:47.235Z,16.77
2024-01-15T01:42:50.355Z,15.73
2024-01-15T01:46:55.006Z,16.55
2024-01-15T01:51:02.607Z,17.33
2024-01-15T01:55:07.100Z,16.48
2024-01-15T01:59:11.844Z,16.73
2024-01-15T02:03:16.718Z,17.67
2024-01-15T02:07:22.120Z,17.95
2024-01-15T02:11:25.191Z,17.45
2024-01-15T02:15:28.086Z,17.50
2024-01-15T02:19:32.348Z,16.65
2024-01-15T02:23:50.398Z,16.65
2024-01-15T02:27:53.608Z,18.23
2024-01-15T02:31:56.779Z,17.77
2024-01-15T02:35:59.698Z,17.80
2024-01-15T02:40:04.549Z,18.23
2024-01-15T02:44:07.403Z,18.40
2024-01-15T02:48:10.267Z,18.08
2024-01-15T02:52:13.130Z,16.58
2024-01-15T02:56:17.234Z,15.55
2024-01-15T03:00:20.265Z,16.85
2024-01-15T03:04:23.135Z,17.67
2024-01-15T03:08:26.017Z,17.98
2024-01-15T03:12:30.172Z,17.17
2024-01-15T03:16:32.927Z,17.08
2024-01-15T03:20:35.712Z,16.55
2024-01-15T03:24:38.626Z,15.65
2024-01-15T03:28:42.799Z,15.65
2024-01-15T03:32:45.668Z,14.63
2024-01-15T03:36:48.705Z,14.75
2024-01-15T03:40:51.611Z,15.18
2024-01-15T03:44:55.795Z,14.23
2024-01-15T03:48:58.716Z,13.98
2024-01-15T03:53:01.827Z,14.18
2024-01-15T03:57:04.992Z,14.38
2024-01-15T04:01:11.680Z,15.07
2024-01-15T04:05:14.481Z,15.18
2024-01-15T04:09:17.418Z,14.80
2024-01-15T04:13:20.291Z,14.68
2024-01-15T04:17:24.467Z,12.85
2024-01-15T04:21:27.304Z,13.05
2024-01-15T04:25:30.051Z,13.35
2024-01-15T04:29:32.936Z,13.75
2024-01-15T04:33:37.219Z,12.70
2024-01-15T04:37:40.129Z,13.65
2024-01-15T04:41:42.904Z,13.20
2024-01-15T04:45:45.769Z,14.10
2024-01-15T04:49:50.371Z,14.48
2024-01-15T04:53:53.532Z,12.88
2024-01-15T04:57:59.272Z,14.02
2024-01-15T05:02:02.112Z,14.73
2024-01-15T05:06:07.159Z,13.88
2024-01-15T05:10:10.150Z,14.13
2024-01-15T05:14:12.941Z,14.50
2024-01-15T05:18:15.958Z,12.20
2024-01-15T05:22:20.166Z,12.35
2024-01-15T05:26:23.046Z,14.02
2024-01-15T05:30:26.047Z,12.52
2024-01-15T05:34:29.165Z,13.18
2024-01-15T05:38:33.335Z,13.85
2024-01-15T05:42:36.307Z,11.93
2024-01-15T05:46:39.230Z,12.32
2024-01-15T05:50:41.994Z,12.00
2024-01-15T05:54:46.267Z,11.88
2024-01-15T05:58:49.080Z,11.60
2024-01-15T06:02:51.860Z,13.80
2024-01-15T06:06:54.801Z,14.05
2024-01-15T06:11:02.126Z,13.93
2024-01-15T06:15:27.415Z,14.27
2024-01-15T06:19:33.609Z,14.68
2024-01-15T06:23:36.491Z,14.75
2024-01-15T06:27:40.697Z,14.25
2024-01-15T06:31:43.646Z,14.80
2024-01-15T06:35:48.631Z,15.85
2024-01-15T06:39:51.539Z,15.27
2024-01-15T06:43:56.736Z,14.57
2024-01-15T06:47:59.574Z,14.23
2024-01-15T06:52:02.448Z,13.50
2024-01-15T06:56:05.654Z,14.02
2024-01-15T07:00:11.542Z,13.85
2024-01-15T07:04:14.736Z,13.32
2024-01-15T07:08:17.616Z,13.60
2024-01-15T07:12:20.393Z,12.82
2024-01-15T07:16:36.158Z,14.07
2024-01-15T07:20:40.844Z,13.93
2024-01-15T07:24:43.666Z,14.13
2024-01-15T07:28:46.516Z,13.20
2024-01-15T07:32:50.734Z,14.95
2024-01-15T07:36:53.651Z,14.05
2024-01-15T07:40:56.527Z,13.85
2024-01-15T07:44:59.340Z,14.73
2024-01-15T07:49:04.644Z,14.40
2024-01-15T07:53:07.592Z,14.98
2024-01-15T07:57:10.467Z,15.20
2024-01-15T08:01:13.380Z,15.63
2024-01-15T08:05:17.710Z,15.77
2024-01-15T08:09:20.582Z,15.25
2024-01-15T08:13:23.391Z,14.82
2024-01-15T08:17:29.453Z,15.55
2024-01-15T08:21:34.002Z,15.52
2024-01-15T08:25:37.074Z,16.13
2024-01-15T08:29:39.970Z,14.25
2024-01-15T08:33:42.855Z,18.52
2024-01-15T08:37:47.080Z,15.75
2024-01-15T08:41:50.006Z,12.23
2024-01-15T08:45:53.026Z,14.30
2024-01-15T08:49:55.842Z,14.05
2024-01-15T08:53:59.995Z,13.07
2024-01-15T08:58:02.866Z,13.68
2024-01-15T09:02:05.761Z,15.10
2024-01-15T09:06:08.686Z,19.40
2024-01-15T09:10:12.895Z,20.85
2024-01-15T09:14:17.205Z,17.17
2024-01-15T09:18:22.010Z,16.35
2024-01-15T09:22:24.830Z,16.10
2024-01-15T09:26:28.973Z,17.27
2024-01-15T09:30:31.966Z,16.17
2024-01-15T09:34:35.201Z,16.10
2024-01-15T09:38:38.120Z,15.98
2024-01-15T09:42:42.638Z,15.25
2024-01-15T09:46:45.764Z,13.82
2024-01-15T09:50:49.021Z,16.02
2024-01-15T09:54:52.439Z,14.45
2024-01-15T09:58:58.362Z,16.80
2024-01-15T10:03:01.604Z,14.10
2024-01-15T10:07:05.355Z,14.43
2024-01-15T10:11:08.306Z,14.75
2024-01-15T10:15:14.041Z,16.40
2024-01-15T10:19:16.886Z,13.98
2024-01-15T10:23:19.712Z,15.75
2024-01-15T10:27:22.590Z,12.68
2024-01-15T10:31:30.519Z,11.88
2024-01-15T10:35:36.260Z,12.82
2024-01-15T10:39:39.803Z,12.63
2024-01-15T10:43:43.104Z,12.10
2024-01-15T10:47:47.376Z,10.93
2024-01-15T10:51:52.176Z,10.65
2024-01-15T10:55:55.030Z,10.80
2024-01-15T10:59:59.785Z,10.77
2024-01-15T11:04:04.227Z,10.80
2024-01-15T11:08:08.773Z,10.93
2024-01-15T11:12:13.659Z,10.20
2024-01-15T11:16:16.936Z,11.30
2024-01-15T11:20:21.411Z,9.43
2024-01-15T11:24:38.349Z,9.82
2024-01-15T11:28:50.292Z,9.85
2024-01-15T11:32:53.315Z,9.32
2024-01-15T11:37:06.845Z,9.10
2024-01-15T11:41:16.906Z,8.65
2024-01-15T11:45:21.965Z,8.98
2024-01-15T11:49:41.108Z,8.70
2024-01-15T11:53:49.601Z,9.48
2024-01-15T11:57:53.423Z,9.32
2024-01-15T12:01:56.540Z,9.20
2024-01-15T12:06:01.007Z,8.38
2024-01-15T12:10:09.821Z,8.00
2024-01-15T12:14:13.222Z,8.70
2024-01-15T12:18:17.451Z,9.00
2024-01-15T12:22:20.659Z,8.07
2024-01-15T12:26:24.822Z,7.85
2024-01-15T12:30:28.346Z,8.55
2024-01-15T12:34:31.881Z,8.20
2024-01-15T12:38:34.692Z,8.43
2024-01-15T12:42:39.398Z,6.45
2024-01-15T12:46:42.257Z,6.78
2024-01-15T12:50:46.607Z,6.28
2024-01-15T12:54:50.017Z,7.25
2024-01-15T12:58:54.263Z,7.32
2024-01-15T13:02:58.373Z,7.55
2024-01-15T13:07:01.390Z,7.70
2024-01-15T13:11:04.330Z,7.15
2024-01-15T13:15:12.888Z,7.65
2024-01-15T13:19:16.653Z,7.53
2024-01-15T13:23:19.515Z,7.45
2024-01-15T13:27:22.386Z,7.78
2024-01-15T13:31:26.600Z,7.43
2024-01-15T13:35:29.444Z,6.47
2024-01-15T13:39:34.332Z,7.32
2024-01-15T13:43:37.171Z,6.78
2024-01-15T13:47:41.365Z,6.60
2024-01-15T13:51:44.205Z,6.03
2024-01-15T13:55:47.155Z,6.00
2024-01-15T13:59:50.205Z,5.32
2024-01-15T14:03:54.733Z,5.95
2024-01-15T14:07:57.584Z,5.53
2024-01-15T14:12:00.826Z,6.13
2024-01-15T14:16:03.792Z,5.47
2024-01-15T14:20:10.959Z,5.20
2024-01-15T14:24:14.312Z,6.05
2024-01-15T14:28:17.091Z,5.82
2024-01-15T14:32:19.851Z,5.68
2024-01-15T14:36:26.236Z,5.93
2024-01-15T14:40:29.062Z,6.82
2024-01-15T14:44:31.811Z,7.30
2024-01-15T14:48:34.830Z,6.90
2024-01-15T14:52:39.812Z,7.15
2024-01-15T14:56:44.830Z,7.53
2024-01-15T15:00:48.442Z,7.18
2024-01-15T15:04:51.357Z,7.60
2024-01-15T15:08:58.718Z,6.00
2024-01-15T15:13:01.916Z,6.10
2024-01-15T15:17:05.389Z,5.20
2024-01-15T15:21:08.990Z,4.22
2024-01-15T15:25:13.802Z,3.97
2024-01-15T15:29:19.082Z,3.78
2024-01-15T15:33:21.988Z,2.63
2024-01-15T15:37:24.921Z,2.30
2024-01-15T15:41:30.036Z,1.95
2024-01-15T15:45:33.218Z,1.80
2024-01-15T15:49:36.386Z,2.05
2024-01-15T15:53:39.519Z,2.35
2024-01-15T15:57:44.107Z,1.95
2024-01-15T16:01:47.979Z,2.13
2024-01-15T16:05:53.327Z,2.10
2024-01-15T16:09:56.895Z,2.42
2024-01-15T16:14:02.972Z,2.40
2024-01-15T16:23:18.907Z,2.35
2024-01-15T16:23:42.046Z,2.45
2024-01-15T16:26:53.589Z,2.80
2024-01-15T16:31:02.172Z,2.80
2024-01-15T16:35:08.672Z,2.60
2024-01-15T16:39:11.602Z,2.78
2024-01-15T16:43:14.438Z,2.95
2024-01-15T16:47:18.644Z,2.67
2024-01-15T16:51:21.487Z,2.75
2024-01-15T16:55:24.388Z,3.28
2024-01-15T16:59:27.239Z,3.45
2024-01-15T17:03:31.544Z,4.10
2024-01-15T17:07:34.390Z,3.60
2024-01-15T17:11:37.359Z,3.92
2024-01-15T17:15:40.258Z,3.03
2024-01-15T17:19:44.694Z,3.25
2024-01-15T17:23:47.962Z,3.20
2024-01-15T17:27:50.741Z,2.90
2024-01-15T17:31:53.514Z,3.28
2024-01-15T17:36:00.149Z,3.00
2024-01-15T17:40:06.806Z,3.42
2024-01-15T17:44:09.839Z,3.45
2024-01-15T17:48:13.546Z,3.15
2024-01-15T17:52:18.430Z,2.97
2024-01-15T17:56:21.263Z,2.80
2024-01-15T18:00:24.339Z,2.35
2024-01-15T18:04:27.326Z,3.10
2024-01-15T18:08:34.509Z,3.08
2024-01-15T18:12:37.710Z,3.00
2024-01-15T18:16:40.615Z,3.03
2024-01-15T18:20:46.074Z,2.58
2024-01-15T18:24:50.734Z,3.20
2024-01-15T18:28:53.555Z,3.65
2024-01-15T18:32:56.456Z,3.40
2024-01-15T18:36:59.317Z,3.88
2024-01-15T18:41:05.287Z,4.03
2024-01-15T18:45:08.977Z,4.22
2024-01-15T18:49:12.299Z,5.07
2024-01-15T18:53:15.384Z,5.25
2024-01-15T19:02:30.887Z,7.35
2024-01-15T19:06:36.385Z,8.27
2024-01-15T19:10:41.371Z,8.25
2024-01-15T19:15:06.738Z,9.85
2024-01-15T19:19:17.314Z,8.88
2024-01-15T19:23:20.300Z,11.07
2024-01-15T19:27:23.172Z,10.98
2024-01-15T19:31:29.729Z,10.32
2024-01-15T19:35:34.131Z,10.40
2024-01-15T19:39:37.467Z,10.70
2024-01-15T19:43:40.361Z,11.95
2024-01-15T19:47:43.352Z,10.35
2024-01-15T19:51:47.800Z,9.63
2024-01-15T19:55:50.679Z,10.23
2024-01-15T19:59:55.479Z,10.70
2024-01-15T20:03:58.349Z,9.75
2024-01-15T20:08:05.028Z,10.02
2024-01-15T20:12:10.522Z,8.45
2024-01-15T20:16:15.387Z,7.50
2024-01-15T20:20:21.731Z,6.85
2024-01-15T20:24:29.909Z,5.53
2024-01-15T20:28:34.510Z,4.45
2024-01-15T20:32:38.462Z,4.20
2024-01-15T20:36:41.580Z,4.05
2024-01-15T20:40:48.410Z,3.08
2024-01-15T20:44:54.446Z,3.15
2024-01-15T20:48:59.694Z,3.20
2024-01-15T20:53:03.362Z,3.50
2024-01-15T20:57:07.683Z,2.97
2024-01-15T21:01:10.546Z,3.00
2024-01-15T21:05:13.832Z,2.30
2024-01-15T21:09:16.687Z,2.50
2024-01-15T21:13:20.917Z,2.10
2024-01-15T21:17:24.418Z,2.20
2024-01-15T21:21:27.417Z,2.00
2024-01-15T21:25:30.435Z,2.00
2024-01-15T21:29:37.832Z,1.52
2024-01-15T21:33:45.003Z,1.90
2024-01-15T21:37:47.810Z,1.90
2024-01-15T21:41:50.991Z,2.40
2024-01-15T21:45:55.121Z,2.20
2024-01-15T21:49:57.917Z,2.28
2024-01-15T21:54:02.637Z,2.33
2024-01-15T21:58:05.796Z,2.20
2024-01-15T22:02:10.184Z,2.65
2024-01-15T22:06:15.112Z,2.53
2024-01-15T22:10:18.145Z,2.45
2024-01-15T22:14:21.154Z,2.85
2024-01-15T22:18:25.477Z,2.85
2024-01-15T22:22:28.528Z,2.78
2024-01-15T22:26:32.916Z,3.60
2024-01-15T22:30:48.816Z,3.65
2024-01-15T22:34:53.947Z,3.65
2024-01-15T22:39:04.055Z,4.00
2024-01-15T22:43:14.812Z,4.00
2024-01-15T22:47:22.214Z,3.80
2024-01-15T22:51:33.790Z,3.97
2024-01-15T22:55:42.430Z,4.05
2024-01-15T22:59:45.508Z,3.47
2024-01-15T23:03:49.228Z,3.85
2024-01-15T23:07:53.827Z,3.92
2024-01-15T23:11:56.603Z,3.92
2024-01-15T23:15:59.362Z,4.15
2024-01-15T23:20:02.365Z,4.13
2024-01-15T23:24:08.876Z,4.30
2024-01-15T23:28:11.638Z,4.22
2024-01-15T23:32:14.460Z,4.15
2024-01-15T23:36:17.328Z,3.95
2024-01-15T23:40:21.489Z,4.20
2024-01-15T23:44:24.286Z,4.25
2024-01-15T23:48:27.176Z,3.95
2024-01-15T23:52:29.976Z,4.07
2024-01-15T23:56:34.084Z,3.60
